sensor_id;sensor_type;location;lat;lon;timestamp;P1;durP1;ratioP1;P2;durP2;ratioP2
10957;SDS011;5531;42.570;23.676;2023-02-15T00:00:44;45.72;;;30.33;;
10957;SDS011;5531;42.570;23.676;2023-02-15T00:03:18;47.88;;;31.48;;
10957;SDS011;5531;42.570;23.676;2023-02-15T00:05:47;48.10;;;31.50;;
10957;SDS011;5531;42.570;23.676;2023-02-15T00:08:16;46.25;;;29.13;;
10957;SDS011;5531;42.570;23.676;2023-02-15T00:10:45;44.17;;;29.45;;
10957;SDS011;5531;42.570;23.676;2023-02-15T00:13:14;43.72;;;29.73;;
10957;SDS011;5531;42.570;23.676;2023-02-15T00:15:43;47.05;;;29.60;;
10957;SDS011;5531;42.570;23.676;2023-02-15T00:18:12;43.55;;;28.23;;
10957;SDS011;5531;42.570;23.676;2023-02-15T00:20:44;45.67;;;31.30;;
10957;SDS011;5531;42.570;23.676;2023-02-15T00:23:14;45.83;;;30.00;;
10957;SDS011;5531;42.570;23.676;2023-02-15T00:25:43;44.17;;;30.02;;
10957;SDS011;5531;42.570;23.676;2023-02-15T00:28:12;45.92;;;28.60;;
10957;SDS011;5531;42.570;23.676;2023-02-15T00:30:41;43.15;;;28.08;;
10957;SDS011;5531;42.570;23.676;2023-02-15T00:33:10;44.80;;;30.50;;
10957;SDS011;5531;42.570;23.676;2023-02-15T00:35:39;45.35;;;30.45;;
10957;SDS011;5531;42.570;23.676;2023-02-15T00:38:11;46.10;;;30.77;;
10957;SDS011;5531;42.570;23.676;2023-02-15T00:40:40;46.20;;;30.45;;
10957;SDS011;5531;42.570;23.676;2023-02-15T00:43:09;45.35;;;29.13;;
10957;SDS011;5531;42.570;23.676;2023-02-15T00:45:38;44.85;;;29.08;;
10957;SDS011;5531;42.570;23.676;2023-02-15T00:48:07;44.72;;;29.90;;
10957;SDS011;5531;42.570;23.676;2023-02-15T00:50:36;47.17;;;30.48;;
10957;SDS011;5531;42.570;23.676;2023-02-15T00:53:05;52.13;;;37.30;;
10957;SDS011;5531;42.570;23.676;2023-02-15T00:55:37;46.92;;;31.73;;
10957;SDS011;5531;42.570;23.676;2023-02-15T00:58:06;47.75;;;31.42;;
10957;SDS011;5531;42.570;23.676;2023-02-15T01:00:37;49.92;;;30.33;;
10957;SDS011;5531;42.570;23.676;2023-02-15T01:03:07;51.45;;;31.95;;
10957;SDS011;5531;42.570;23.676;2023-02-15T01:05:36;48.42;;;30.88;;
10957;SDS011;5531;42.570;23.676;2023-02-15T01:08:05;48.67;;;30.70;;
10957;SDS011;5531;42.570;23.676;2023-02-15T01:10:38;48.50;;;31.10;;
10957;SDS011;5531;42.570;23.676;2023-02-15T01:13:09;51.72;;;32.08;;
10957;SDS011;5531;42.570;23.676;2023-02-15T01:15:38;47.08;;;29.42;;
10957;SDS011;5531;42.570;23.676;2023-02-15T01:18:07;50.47;;;31.70;;
10957;SDS011;5531;42.570;23.676;2023-02-15T01:20:38;49.35;;;31.88;;
10957;SDS011;5531;42.570;23.676;2023-02-15T01:23:08;50.10;;;33.30;;
10957;SDS011;5531;42.570;23.676;2023-02-15T01:25:40;47.47;;;31.80;;
10957;SDS011;5531;42.570;23.676;2023-02-15T01:28:09;46.88;;;30.15;;
10957;SDS011;5531;42.570;23.676;2023-02-15T01:30:39;51.30;;;31.55;;
10957;SDS011;5531;42.570;23.676;2023-02-15T01:33:08;44.47;;;28.80;;
10957;SDS011;5531;42.570;23.676;2023-02-15T01:35:43;48.78;;;29.70;;
10957;SDS011;5531;42.570;23.676;2023-02-15T01:38:13;51.55;;;31.42;;
10957;SDS011;5531;42.570;23.676;2023-02-15T01:40:45;50.13;;;32.63;;
10957;SDS011;5531;42.570;23.676;2023-02-15T01:43:14;49.00;;;33.00;;
10957;SDS011;5531;42.570;23.676;2023-02-15T01:45:43;47.85;;;30.08;;
10957;SDS011;5531;42.570;23.676;2023-02-15T01:48:18;45.50;;;29.65;;
10957;SDS011;5531;42.570;23.676;2023-02-15T01:50:52;48.28;;;30.65;;
10957;SDS011;5531;42.570;23.676;2023-02-15T01:53:25;51.38;;;31.73;;
10957;SDS011;5531;42.570;23.676;2023-02-15T01:56:01;47.60;;;29.25;;
10957;SDS011;5531;42.570;23.676;2023-02-15T01:58:34;48.05;;;31.35;;
10957;SDS011;5531;42.570;23.676;2023-02-15T02:01:04;47.75;;;29.92;;
10957;SDS011;5531;42.570;23.676;2023-02-15T02:03:38;47.03;;;32.20;;
10957;SDS011;5531;42.570;23.676;2023-02-15T02:06:14;46.50;;;30.02;;
10957;SDS011;5531;42.570;23.676;2023-02-15T02:08:44;48.20;;;31.85;;
10957;SDS011;5531;42.570;23.676;2023-02-15T02:11:15;47.50;;;30.23;;
10957;SDS011;5531;42.570;23.676;2023-02-15T02:13:45;46.47;;;28.85;;
10957;SDS011;5531;42.570;23.676;2023-02-15T02:16:16;45.20;;;30.17;;
10957;SDS011;5531;42.570;23.676;2023-02-15T02:18:54;44.15;;;28.75;;
10957;SDS011;5531;42.570;23.676;2023-02-15T02:28:01;45.63;;;30.48;;
10957;SDS011;5531;42.570;23.676;2023-02-15T02:30:54;47.08;;;30.48;;
10957;SDS011;5531;42.570;23.676;2023-02-15T02:34:00;46.53;;;31.33;;
10957;SDS011;5531;42.570;23.676;2023-02-15T02:36:36;48.47;;;30.45;;
10957;SDS011;5531;42.570;23.676;2023-02-15T02:39:19;45.17;;;32.08;;
10957;SDS011;5531;42.570;23.676;2023-02-15T02:41:57;48.45;;;31.38;;
10957;SDS011;5531;42.570;23.676;2023-02-15T02:44:32;46.80;;;30.52;;
10957;SDS011;5531;42.570;23.676;2023-02-15T02:47:09;46.60;;;31.15;;
10957;SDS011;5531;42.570;23.676;2023-02-15T02:49:44;45.47;;;29.95;;
10957;SDS011;5531;42.570;23.676;2023-02-15T02:55:05;47.13;;;28.85;;
10957;SDS011;5531;42.570;23.676;2023-02-15T02:57:37;45.10;;;29.58;;
10957;SDS011;5531;42.570;23.676;2023-02-15T03:00:11;46.97;;;29.95;;
10957;SDS011;5531;42.570;23.676;2023-02-15T03:02:43;44.60;;;29.60;;
10957;SDS011;5531;42.570;23.676;2023-02-15T03:05:18;44.15;;;28.17;;
10957;SDS011;5531;42.570;23.676;2023-02-15T03:07:53;44.88;;;30.15;;
10957;SDS011;5531;42.570;23.676;2023-02-15T03:10:26;48.30;;;32.35;;
10957;SDS011;5531;42.570;23.676;2023-02-15T03:12:56;44.03;;;29.77;;
10957;SDS011;5531;42.570;23.676;2023-02-15T03:15:27;44.13;;;30.27;;
10957;SDS011;5531;42.570;23.676;2023-02-15T03:18:12;47.05;;;30.10;;
10957;SDS011;5531;42.570;23.676;2023-02-15T03:20:47;47.08;;;30.45;;
10957;SDS011;5531;42.570;23.676;2023-02-15T03:23:18;44.97;;;30.48;;
10957;SDS011;5531;42.570;23.676;2023-02-15T03:25:51;46.08;;;29.15;;
10957;SDS011;5531;42.570;23.676;2023-02-15T03:28:25;46.55;;;30.40;;
10957;SDS011;5531;42.570;23.676;2023-02-15T03:30:57;46.88;;;31.25;;
10957;SDS011;5531;42.570;23.676;2023-02-15T03:33:30;46.47;;;31.33;;
10957;SDS011;5531;42.570;23.676;2023-02-15T03:36:04;44.13;;;29.85;;
10957;SDS011;5531;42.570;23.676;2023-02-15T03:38:46;46.15;;;29.85;;
10957;SDS011;5531;42.570;23.676;2023-02-15T03:41:19;45.08;;;27.63;;
10957;SDS011;5531;42.570;23.676;2023-02-15T03:43:53;42.15;;;29.10;;
10957;SDS011;5531;42.570;23.676;2023-02-15T03:46:25;42.38;;;29.08;;
10957;SDS011;5531;42.570;23.676;2023-02-15T03:49:01;43.10;;;28.20;;
10957;SDS011;5531;42.570;23.676;2023-02-15T03:51:37;45.40;;;29.35;;
10957;SDS011;5531;42.570;23.676;2023-02-15T03:54:12;45.20;;;28.67;;
10957;SDS011;5531;42.570;23.676;2023-02-15T03:57:04;44.75;;;27.90;;
10957;SDS011;5531;42.570;23.676;2023-02-15T03:59:48;46.20;;;34.35;;
10957;SDS011;5531;42.570;23.676;2023-02-15T04:02:30;44.10;;;28.80;;
10957;SDS011;5531;42.570;23.676;2023-02-15T04:05:05;44.80;;;28.30;;
10957;SDS011;5531;42.570;23.676;2023-02-15T04:07:37;45.63;;;30.33;;
10957;SDS011;5531;42.570;23.676;2023-02-15T04:10:06;45.50;;;29.85;;
10957;SDS011;5531;42.570;23.676;2023-02-15T04:12:47;42.22;;;28.00;;
10957;SDS011;5531;42.570;23.676;2023-02-15T04:15:16;43.67;;;28.42;;
10957;SDS011;5531;42.570;23.676;2023-02-15T04:17:57;43.15;;;27.17;;
10957;SDS011;5531;42.570;23.676;2023-02-15T04:20:27;40.17;;;26.75;;
10957;SDS011;5531;42.570;23.676;2023-02-15T04:23:10;39.47;;;27.27;;
10957;SDS011;5531;42.570;23.676;2023-02-15T04:25:52;40.53;;;26.20;;
10957;SDS011;5531;42.570;23.676;2023-02-15T04:28:21;42.28;;;27.10;;
10957;SDS011;5531;42.570;23.676;2023-02-15T04:30:50;41.33;;;27.17;;
10957;SDS011;5531;42.570;23.676;2023-02-15T04:33:19;41.00;;;27.02;;
10957;SDS011;5531;42.570;23.676;2023-02-15T04:35:48;41.22;;;27.33;;
10957;SDS011;5531;42.570;23.676;2023-02-15T04:38:20;38.38;;;26.45;;
10957;SDS011;5531;42.570;23.676;2023-02-15T04:40:49;41.28;;;28.48;;
10957;SDS011;5531;42.570;23.676;2023-02-15T04:43:19;40.60;;;27.30;;
10957;SDS011;5531;42.570;23.676;2023-02-15T04:45:48;41.17;;;29.55;;
10957;SDS011;5531;42.570;23.676;2023-02-15T04:48:18;39.85;;;27.08;;
10957;SDS011;5531;42.570;23.676;2023-02-15T04:50:47;44.35;;;31.05;;
10957;SDS011;5531;42.570;23.676;2023-02-15T04:53:21;41.38;;;29.65;;
10957;SDS011;5531;42.570;23.676;2023-02-15T04:55:50;42.88;;;29.20;;
10957;SDS011;5531;42.570;23.676;2023-02-15T04:58:20;40.10;;;28.55;;
10957;SDS011;5531;42.570;23.676;2023-02-15T05:00:49;40.47;;;26.30;;
10957;SDS011;5531;42.570;23.676;2023-02-15T05:03:18;41.95;;;26.90;;
10957;SDS011;5531;42.570;23.676;2023-02-15T05:05:47;39.35;;;28.42;;
10957;SDS011;5531;42.570;23.676;2023-02-15T05:08:16;40.22;;;28.73;;
10957;SDS011;5531;42.570;23.676;2023-02-15T05:10:49;40.00;;;28.52;;
10957;SDS011;5531;42.570;23.676;2023-02-15T05:13:19;39.42;;;27.20;;
10957;SDS011;5531;42.570;23.676;2023-02-15T05:15:48;40.42;;;27.15;;
10957;SDS011;5531;42.570;23.676;2023-02-15T05:18:18;41.70;;;28.67;;
10957;SDS011;5531;42.570;23.676;2023-02-15T05:20:48;41.28;;;26.65;;
10957;SDS011;5531;42.570;23.676;2023-02-15T05:23:17;47.50;;;34.92;;
10957;SDS011;5531;42.570;23.676;2023-02-15T05:25:46;45.35;;;32.38;;
10957;SDS011;5531;42.570;23.676;2023-02-15T05:28:31;40.05;;;27.70;;
10957;SDS011;5531;42.570;23.676;2023-02-15T05:31:02;45.63;;;29.08;;
10957;SDS011;5531;42.570;23.676;2023-02-15T05:33:32;42.85;;;27.13;;
10957;SDS011;5531;42.570;23.676;2023-02-15T05:36:02;42.05;;;27.73;;
10957;SDS011;5531;42.570;23.676;2023-02-15T05:38:32;41.65;;;30.02;;
10957;SDS011;5531;42.570;23.676;2023-02-15T05:41:05;41.90;;;27.15;;
10957;SDS011;5531;42.570;23.676;2023-02-15T05:43:35;45.58;;;29.00;;
10957;SDS011;5531;42.570;23.676;2023-02-15T05:46:05;44.17;;;29.33;;
10957;SDS011;5531;42.570;23.676;2023-02-15T05:48:35;41.08;;;28.42;;
10957;SDS011;5531;42.570;23.676;2023-02-15T05:51:05;42.05;;;26.75;;
10957;SDS011;5531;42.570;23.676;2023-02-15T05:53:37;47.25;;;28.17;;
10957;SDS011;5531;42.570;23.676;2023-02-15T05:56:10;43.58;;;28.65;;
10957;SDS011;5531;42.570;23.676;2023-02-15T05:58:40;43.33;;;29.38;;
10957;SDS011;5531;42.570;23.676;2023-02-15T06:01:10;44.25;;;27.38;;
10957;SDS011;5531;42.570;23.676;2023-02-15T06:03:40;42.38;;;28.00;;
10957;SDS011;5531;42.570;23.676;2023-02-15T06:06:09;42.38;;;27.52;;
10957;SDS011;5531;42.570;23.676;2023-02-15T06:08:39;41.55;;;29.17;;
10957;SDS011;5531;42.570;23.676;2023-02-15T06:11:12;44.17;;;28.40;;
10957;SDS011;5531;42.570;23.676;2023-02-15T06:13:41;42.50;;;27.92;;
10957;SDS011;5531;42.570;23.676;2023-02-15T06:16:10;42.92;;;27.42;;
10957;SDS011;5531;42.570;23.676;2023-02-15T06:18:41;43.95;;;27.85;;
10957;SDS011;5531;42.570;23.676;2023-02-15T06:21:10;39.80;;;26.52;;
10957;SDS011;5531;42.570;23.676;2023-02-15T06:23:39;42.10;;;28.08;;
10957;SDS011;5531;42.570;23.676;2023-02-15T06:26:08;41.95;;;27.30;;
10957;SDS011;5531;42.570;23.676;2023-02-15T06:28:40;40.67;;;28.40;;
10957;SDS011;5531;42.570;23.676;2023-02-15T06:31:09;41.40;;;27.17;;
10957;SDS011;5531;42.570;23.676;2023-02-15T06:33:38;40.13;;;26.77;;
10957;SDS011;5531;42.570;23.676;2023-02-15T06:36:07;41.75;;;26.92;;
10957;SDS011;5531;42.570;23.676;2023-02-15T06:38:38;40.97;;;26.80;;
10957;SDS011;5531;42.570;23.676;2023-02-15T06:41:09;50.60;;;37.65;;
10957;SDS011;5531;42.570;23.676;2023-02-15T06:43:40;41.72;;;28.27;;
10957;SDS011;5531;42.570;23.676;2023-02-15T06:46:09;40.30;;;27.40;;
10957;SDS011;5531;42.570;23.676;2023-02-15T06:48:38;40.22;;;28.52;;
10957;SDS011;5531;42.570;23.676;2023-02-15T06:51:07;38.95;;;28.38;;
10957;SDS011;5531;42.570;23.676;2023-02-15T06:53:36;42.97;;;30.42;;
10957;SDS011;5531;42.570;23.676;2023-02-15T06:56:06;40.40;;;28.35;;
10957;SDS011;5531;42.570;23.676;2023-02-15T06:58:39;40.45;;;27.00;;
10957;SDS011;5531;42.570;23.676;2023-02-15T07:01:11;44.05;;;28.25;;
10957;SDS011;5531;42.570;23.676;2023-02-15T07:03:40;43.85;;;28.90;;
10957;SDS011;5531;42.570;23.676;2023-02-15T07:06:09;44.53;;;29.58;;
10957;SDS011;5531;42.570;23.676;2023-02-15T07:08:39;42.92;;;28.67;;
10957;SDS011;5531;42.570;23.676;2023-02-15T07:11:08;40.77;;;29.77;;
10957;SDS011;5531;42.570;23.676;2023-02-15T07:13:52;39.95;;;27.38;;
10957;SDS011;5531;42.570;23.676;2023-02-15T07:16:21;41.78;;;30.83;;
10957;SDS011;5531;42.570;23.676;2023-02-15T07:18:50;41.08;;;28.20;;
10957;SDS011;5531;42.570;23.676;2023-02-15T07:21:19;42.88;;;29.67;;
10957;SDS011;5531;42.570;23.676;2023-02-15T07:23:49;41.03;;;29.02;;
10957;SDS011;5531;42.570;23.676;2023-02-15T07:26:18;44.92;;;30.42;;
10957;SDS011;5531;42.570;23.676;2023-02-15T07:28:47;42.70;;;28.23;;
10957;SDS011;5531;42.570;23.676;2023-02-15T07:31:19;42.55;;;30.55;;
10957;SDS011;5531;42.570;23.676;2023-02-15T07:33:48;37.80;;;26.02;;
10957;SDS011;5531;42.570;23.676;2023-02-15T07:36:17;41.78;;;27.63;;
10957;SDS011;5531;42.570;23.676;2023-02-15T07:38:46;38.13;;;27.95;;
10957;SDS011;5531;42.570;23.676;2023-02-15T07:41:15;44.20;;;29.48;;
10957;SDS011;5531;42.570;23.676;2023-02-15T07:43:45;43.47;;;28.08;;
10957;SDS011;5531;42.570;23.676;2023-02-15T07:46:15;41.30;;;28.58;;
10957;SDS011;5531;42.570;23.676;2023-02-15T07:48:48;51.38;;;38.65;;
10957;SDS011;5531;42.570;23.676;2023-02-15T07:51:17;41.42;;;29.20;;
10957;SDS011;5531;42.570;23.676;2023-02-15T07:53:46;42.42;;;32.17;;
10957;SDS011;5531;42.570;23.676;2023-02-15T07:56:16;41.35;;;28.83;;
10957;SDS011;5531;42.570;23.676;2023-02-15T07:58:45;40.38;;;28.98;;
10957;SDS011;5531;42.570;23.676;2023-02-15T08:01:22;38.63;;;27.17;;
10957;SDS011;5531;42.570;23.676;2023-02-15T08:03:55;37.78;;;26.45;;
10957;SDS011;5531;42.570;23.676;2023-02-15T08:06:25;38.65;;;26.08;;
10957;SDS011;5531;42.570;23.676;2023-02-15T08:08:56;36.42;;;26.23;;
10957;SDS011;5531;42.570;23.676;2023-02-15T08:11:26;36.58;;;25.67;;
10957;SDS011;5531;42.570;23.676;2023-02-15T08:14:03;39.95;;;28.05;;
10957;SDS011;5531;42.570;23.676;2023-02-15T08:16:34;38.25;;;26.42;;
10957;SDS011;5531;42.570;23.676;2023-02-15T08:19:07;34.90;;;25.65;;
10957;SDS011;5531;42.570;23.676;2023-02-15T08:21:39;35.33;;;25.85;;
10957;SDS011;5531;42.570;23.676;2023-02-15T08:24:09;39.50;;;27.20;;
10957;SDS011;5531;42.570;23.676;2023-02-15T08:26:39;37.15;;;26.80;;
10957;SDS011;5531;42.570;23.676;2023-02-15T08:29:10;37.85;;;25.65;;
10957;SDS011;5531;42.570;23.676;2023-02-15T08:31:39;38.78;;;26.48;;
10957;SDS011;5531;42.570;23.676;2023-02-15T08:34:12;35.65;;;24.92;;
10957;SDS011;5531;42.570;23.676;2023-02-15T08:36:43;34.85;;;23.73;;
10957;SDS011;5531;42.570;23.676;2023-02-15T08:39:13;34.22;;;23.25;;
10957;SDS011;5531;42.570;23.676;2023-02-15T08:41:44;36.38;;;25.83;;
10957;SDS011;5531;42.570;23.676;2023-02-15T08:44:14;33.13;;;23.60;;
10957;SDS011;5531;42.570;23.676;2023-02-15T08:46:45;31.92;;;21.50;;
10957;SDS011;5531;42.570;23.676;2023-02-15T08:49:18;29.15;;;21.00;;
10957;SDS011;5531;42.570;23.676;2023-02-15T08:51:49;31.13;;;21.75;;
10957;SDS011;5531;42.570;23.676;2023-02-15T08:54:19;31.58;;;23.00;;
10957;SDS011;5531;42.570;23.676;2023-02-15T08:56:49;31.35;;;21.98;;
10957;SDS011;5531;42.570;23.676;2023-02-15T08:59:18;32.95;;;22.50;;
10957;SDS011;5531;42.570;23.676;2023-02-15T09:01:49;30.92;;;21.75;;
10957;SDS011;5531;42.570;23.676;2023-02-15T09:04:22;30.67;;;22.60;;
10957;SDS011;5531;42.570;23.676;2023-02-15T09:06:51;31.40;;;21.70;;
10957;SDS011;5531;42.570;23.676;2023-02-15T09:09:20;30.17;;;21.98;;
10957;SDS011;5531;42.570;23.676;2023-02-15T09:11:50;29.55;;;21.55;;
10957;SDS011;5531;42.570;23.676;2023-02-15T09:14:20;28.60;;;21.58;;
10957;SDS011;5531;42.570;23.676;2023-02-15T09:16:51;31.20;;;20.02;;
10957;SDS011;5531;42.570;23.676;2023-02-15T09:19:23;31.20;;;22.33;;
10957;SDS011;5531;42.570;23.676;2023-02-15T09:21:53;28.45;;;20.88;;
10957;SDS011;5531;42.570;23.676;2023-02-15T09:24:23;30.02;;;21.15;;
10957;SDS011;5531;42.570;23.676;2023-02-15T09:26:52;28.63;;;20.90;;
10957;SDS011;5531;42.570;23.676;2023-02-15T09:29:21;26.33;;;18.88;;
10957;SDS011;5531;42.570;23.676;2023-02-15T09:31:50;30.88;;;22.73;;
10957;SDS011;5531;42.570;23.676;2023-02-15T09:34:20;28.10;;;21.15;;
10957;SDS011;5531;42.570;23.676;2023-02-15T09:36:52;31.00;;;22.02;;
10957;SDS011;5531;42.570;23.676;2023-02-15T09:39:22;31.35;;;21.38;;
10957;SDS011;5531;42.570;23.676;2023-02-15T09:44:57;25.98;;;19.88;;
10957;SDS011;5531;42.570;23.676;2023-02-15T09:47:42;26.42;;;19.88;;
10957;SDS011;5531;42.570;23.676;2023-02-15T09:50:36;27.42;;;19.92;;
10957;SDS011;5531;42.570;23.676;2023-02-15T09:53:17;27.52;;;20.30;;
10957;SDS011;5531;42.570;23.676;2023-02-15T09:55:57;26.08;;;19.35;;
10957;SDS011;5531;42.570;23.676;2023-02-15T09:58:36;27.17;;;19.20;;
10957;SDS011;5531;42.570;23.676;2023-02-15T10:01:15;29.08;;;20.88;;
10957;SDS011;5531;42.570;23.676;2023-02-15T10:04:01;27.30;;;21.08;;
10957;SDS011;5531;42.570;23.676;2023-02-15T10:06:51;28.10;;;20.30;;
10957;SDS011;5531;42.570;23.676;2023-02-15T10:09:33;26.40;;;19.17;;
10957;SDS011;5531;42.570;23.676;2023-02-15T10:12:12;25.27;;;18.30;;
10957;SDS011;5531;42.570;23.676;2023-02-15T10:14:56;25.10;;;19.13;;
10957;SDS011;5531;42.570;23.676;2023-02-15T10:20:47;25.67;;;18.67;;
10957;SDS011;5531;42.570;23.676;2023-02-15T10:23:37;22.90;;;16.48;;
10957;SDS011;5531;42.570;23.676;2023-02-15T10:26:26;23.92;;;17.60;;
10957;SDS011;5531;42.570;23.676;2023-02-15T10:29:04;24.27;;;16.83;;
10957;SDS011;5531;42.570;23.676;2023-02-15T10:31:43;19.98;;;15.95;;
10957;SDS011;5531;42.570;23.676;2023-02-15T10:34:18;23.55;;;18.25;;
10957;SDS011;5531;42.570;23.676;2023-02-15T10:39:52;21.08;;;16.13;;
10957;SDS011;5531;42.570;23.676;2023-02-15T10:42:31;22.42;;;16.10;;
10957;SDS011;5531;42.570;23.676;2023-02-15T10:45:12;21.08;;;15.52;;
10957;SDS011;5531;42.570;23.676;2023-02-15T10:51:02;23.25;;;17.75;;
10957;SDS011;5531;42.570;23.676;2023-02-15T10:53:40;19.02;;;15.45;;
10957;SDS011;5531;42.570;23.676;2023-02-15T10:56:33;23.52;;;16.88;;
10957;SDS011;5531;42.570;23.676;2023-02-15T10:59:11;22.45;;;16.50;;
10957;SDS011;5531;42.570;23.676;2023-02-15T11:01:58;21.70;;;16.38;;
10957;SDS011;5531;42.570;23.676;2023-02-15T11:07:21;19.88;;;14.77;;
10957;SDS011;5531;42.570;23.676;2023-02-15T11:09:59;24.63;;;16.50;;
10957;SDS011;5531;42.570;23.676;2023-02-15T11:12:37;22.33;;;16.65;;
10957;SDS011;5531;42.570;23.676;2023-02-15T11:15:11;22.38;;;17.45;;
10957;SDS011;5531;42.570;23.676;2023-02-15T11:17:49;21.15;;;16.95;;
10957;SDS011;5531;42.570;23.676;2023-02-15T11:20:25;21.27;;;16.98;;
10957;SDS011;5531;42.570;23.676;2023-02-15T11:22:59;21.50;;;15.82;;
10957;SDS011;5531;42.570;23.676;2023-02-15T11:25:31;21.55;;;16.67;;
10957;SDS011;5531;42.570;23.676;2023-02-15T11:28:06;23.10;;;16.20;;
10957;SDS011;5531;42.570;23.676;2023-02-15T11:30:48;22.02;;;17.13;;
10957;SDS011;5531;42.570;23.676;2023-02-15T11:33:22;24.65;;;18.83;;
10957;SDS011;5531;42.570;23.676;2023-02-15T11:35:58;22.88;;;17.70;;
10957;SDS011;5531;42.570;23.676;2023-02-15T11:38:32;21.25;;;15.95;;
10957;SDS011;5531;42.570;23.676;2023-02-15T11:41:05;19.42;;;15.35;;
10957;SDS011;5531;42.570;23.676;2023-02-15T11:43:41;19.88;;;16.17;;
10957;SDS011;5531;42.570;23.676;2023-02-15T11:46:16;19.38;;;15.57;;
10957;SDS011;5531;42.570;23.676;2023-02-15T11:48:46;20.92;;;16.95;;
10957;SDS011;5531;42.570;23.676;2023-02-15T11:51:17;20.45;;;16.65;;
10957;SDS011;5531;42.570;23.676;2023-02-15T11:53:49;22.10;;;16.23;;
10957;SDS011;5531;42.570;23.676;2023-02-15T11:56:20;20.15;;;15.98;;
10957;SDS011;5531;42.570;23.676;2023-02-15T11:58:54;20.73;;;15.05;;
10957;SDS011;5531;42.570;23.676;2023-02-15T12:01:28;21.85;;;16.88;;
10957;SDS011;5531;42.570;23.676;2023-02-15T12:04:01;20.95;;;16.73;;
10957;SDS011;5531;42.570;23.676;2023-02-15T12:06:36;22.13;;;17.33;;
10957;SDS011;5531;42.570;23.676;2023-02-15T12:09:12;22.05;;;17.88;;
10957;SDS011;5531;42.570;23.676;2023-02-15T12:11:49;22.77;;;17.45;;
10957;SDS011;5531;42.570;23.676;2023-02-15T12:14:21;20.77;;;16.60;;
10957;SDS011;5531;42.570;23.676;2023-02-15T12:16:50;22.25;;;17.52;;
10957;SDS011;5531;42.570;23.676;2023-02-15T12:19:27;24.58;;;18.55;;
10957;SDS011;5531;42.570;23.676;2023-02-15T12:22:00;23.77;;;17.90;;
10957;SDS011;5531;42.570;23.676;2023-02-15T12:24:32;23.02;;;18.73;;
10957;SDS011;5531;42.570;23.676;2023-02-15T12:27:05;23.40;;;18.40;;
10957;SDS011;5531;42.570;23.676;2023-02-15T12:29:46;23.02;;;18.08;;
10957;SDS011;5531;42.570;23.676;2023-02-15T12:32:17;25.08;;;19.02;;
10957;SDS011;5531;42.570;23.676;2023-02-15T12:34:50;22.60;;;17.60;;
10957;SDS011;5531;42.570;23.676;2023-02-15T12:37:23;22.38;;;18.08;;
10957;SDS011;5531;42.570;23.676;2023-02-15T12:39:58;24.95;;;18.73;;
10957;SDS011;5531;42.570;23.676;2023-02-15T12:42:28;24.90;;;19.25;;
10957;SDS011;5531;42.570;23.676;2023-02-15T12:45:22;23.25;;;18.80;;
10957;SDS011;5531;42.570;23.676;2023-02-15T12:50:43;22.95;;;18.60;;
10957;SDS011;5531;42.570;23.676;2023-02-15T12:53:14;24.15;;;18.10;;
10957;SDS011;5531;42.570;23.676;2023-02-15T12:55:52;23.08;;;18.25;;
10957;SDS011;5531;42.570;23.676;2023-02-15T12:58:23;22.58;;;17.50;;
10957;SDS011;5531;42.570;23.676;2023-02-15T13:01:10;22.98;;;17.20;;
10957;SDS011;5531;42.570;23.676;2023-02-15T13:03:53;21.25;;;18.05;;
10957;SDS011;5531;42.570;23.676;2023-02-15T13:06:26;24.70;;;17.92;;
10957;SDS011;5531;42.570;23.676;2023-02-15T13:08:57;23.40;;;18.25;;
10957;SDS011;5531;42.570;23.676;2023-02-15T13:11:33;21.40;;;17.38;;
10957;SDS011;5531;42.570;23.676;2023-02-15T13:14:04;22.75;;;17.63;;
10957;SDS011;5531;42.570;23.676;2023-02-15T13:16:49;26.60;;;19.08;;
10957;SDS011;5531;42.570;23.676;2023-02-15T13:19:22;26.15;;;18.67;;
10957;SDS011;5531;42.570;23.676;2023-02-15T13:22:06;24.60;;;19.42;;
10957;SDS011;5531;42.570;23.676;2023-02-15T13:24:41;24.73;;;18.58;;
10957;SDS011;5531;42.570;23.676;2023-02-15T13:27:14;24.60;;;19.45;;
10957;SDS011;5531;42.570;23.676;2023-02-15T13:29:46;25.58;;;18.92;;
10957;SDS011;5531;42.570;23.676;2023-02-15T13:32:25;24.25;;;19.20;;
10957;SDS011;5531;42.570;23.676;2023-02-15T13:34:57;24.40;;;19.23;;
10957;SDS011;5531;42.570;23.676;2023-02-15T13:37:37;25.85;;;20.50;;
10957;SDS011;5531;42.570;23.676;2023-02-15T13:40:22;21.83;;;17.70;;
10957;SDS011;5531;42.570;23.676;2023-02-15T13:42:59;23.42;;;18.23;;
10957;SDS011;5531;42.570;23.676;2023-02-15T13:45:36;24.92;;;19.20;;
10957;SDS011;5531;42.570;23.676;2023-02-15T13:48:20;23.98;;;18.83;;
10957;SDS011;5531;42.570;23.676;2023-02-15T13:51:00;23.20;;;18.38;;
10957;SDS011;5531;42.570;23.676;2023-02-15T13:53:42;22.70;;;17.48;;
10957;SDS011;5531;42.570;23.676;2023-02-15T13:56:28;22.63;;;17.40;;
10957;SDS011;5531;42.570;23.676;2023-02-15T13:59:17;22.40;;;17.83;;
10957;SDS011;5531;42.570;23.676;2023-02-15T14:01:56;22.35;;;18.23;;
10957;SDS011;5531;42.570;23.676;2023-02-15T14:07:42;21.67;;;17.65;;
10957;SDS011;5531;42.570;23.676;2023-02-15T14:10:28;20.88;;;17.88;;
10957;SDS011;5531;42.570;23.676;2023-02-15T14:13:15;20.90;;;17.95;;
10957;SDS011;5531;42.570;23.676;2023-02-15T14:16:03;22.35;;;19.95;;
10957;SDS011;5531;42.570;23.676;2023-02-15T14:18:38;20.60;;;18.50;;
10957;SDS011;5531;42.570;23.676;2023-02-15T14:21:15;22.80;;;19.25;;
10957;SDS011;5531;42.570;23.676;2023-02-15T14:23:53;21.35;;;19.15;;
10957;SDS011;5531;42.570;23.676;2023-02-15T14:26:32;22.58;;;19.40;;
10957;SDS011;5531;42.570;23.676;2023-02-15T14:29:10;21.25;;;19.00;;
10957;SDS011;5531;42.570;23.676;2023-02-15T14:31:49;23.95;;;19.63;;
10957;SDS011;5531;42.570;23.676;2023-02-15T14:34:23;22.10;;;19.70;;
10957;SDS011;5531;42.570;23.676;2023-02-15T14:36:59;21.33;;;19.02;;
10957;SDS011;5531;42.570;23.676;2023-02-15T14:39:31;20.73;;;18.52;;
10957;SDS011;5531;42.570;23.676;2023-02-15T14:42:23;20.98;;;18.77;;
10957;SDS011;5531;42.570;23.676;2023-02-15T14:45:00;20.52;;;18.33;;
10957;SDS011;5531;42.570;23.676;2023-02-15T14:47:33;21.05;;;18.83;;
10957;SDS011;5531;42.570;23.676;2023-02-15T14:53:24;22.08;;;18.58;;
10957;SDS011;5531;42.570;23.676;2023-02-15T14:58:58;23.40;;;18.15;;
10957;SDS011;5531;42.570;23.676;2023-02-15T15:01:51;24.65;;;19.25;;
10957;SDS011;5531;42.570;23.676;2023-02-15T15:04:28;23.25;;;18.65;;
10957;SDS011;5531;42.570;23.676;2023-02-15T15:07:02;22.67;;;18.80;;
10957;SDS011;5531;42.570;23.676;2023-02-15T15:09:43;23.15;;;18.67;;
10957;SDS011;5531;42.570;23.676;2023-02-15T15:15:10;22.42;;;18.58;;
10957;SDS011;5531;42.570;23.676;2023-02-15T15:17:54;23.58;;;18.73;;
10957;SDS011;5531;42.570;23.676;2023-02-15T15:26:23;25.17;;;20.13;;
10957;SDS011;5531;42.570;23.676;2023-02-15T15:28:59;25.52;;;20.17;;
10957;SDS011;5531;42.570;23.676;2023-02-15T15:31:40;26.75;;;21.23;;
10957;SDS011;5531;42.570;23.676;2023-02-15T15:43:24;26.38;;;20.23;;
10957;SDS011;5531;42.570;23.676;2023-02-15T15:46:20;26.52;;;19.50;;
10957;SDS011;5531;42.570;23.676;2023-02-15T15:49:02;24.92;;;19.42;;
10957;SDS011;5531;42.570;23.676;2023-02-15T15:51:39;26.88;;;20.92;;
10957;SDS011;5531;42.570;23.676;2023-02-15T15:54:12;25.50;;;19.80;;